Airfield :
LOGIN :

Register | Disclaimer

   EN    FR    IT 

 










Legend :    VFR   Marginal VFR   IFR   Intensive IFR   Very Intensive IFR
Visi :
Ceiling :
>= 8 km
>= 3000ft
5 to 8 km
1000 to 3000 ft
1500m to 5 km
500 to 1000 ft
800 to 1500m
200 to 500 ft
< 800m
< 200 ft
Symbols :   Thunderstorms  Fog  Heavy snow  Heavy precipitations  Wind > 20 kt
SIGMETs :     Misc.  Thunderstorms  Icing  Turbulence  Mountain Waves  Volcanic Ashes






- Airport Elevation : 278 ft
- IATA code : RJK


LDRI - Rijeka

CURRENT METAR :
  • 221400Z 27004KT 230V300 9999 FEW040 27/14 Q1010

EXPIRED METARs :
  • 221330Z 28005KT 250V320 9999 FEW040 27/13 Q1011
  • 221300Z 29005KT 250V330 9999 FEW040 28/13 Q1011
  • 221230Z 26006KT 9999 FEW040 28/13 Q1011
  • 221200Z 29006KT 240V360 9999 FEW040 28/13 Q1012
  • 221130Z 29005KT 240V360 9999 FEW040 27/13 Q1012

TAF COR TAF LDRI
Valid from the 22 at 12:00 until the 23 at 12:00 UTC


221126Z 2212/2312 VRB02KT 9999 FEW045 TX28/2214Z TN18/2304Z
PROB30
TEMPO 2213/2217 32009KT -TSRA FEW030CB BKN040
PROB30
TEMPO 2302/2307 TS FEW070CB
PROB40
TEMPO 2307/2312 TSRA SCT030 FEW040CB



MET'MAP, your aeronautical weather chart ! - Copyright ORBIFLY December 2007 - Disclaimer

ORBIFLY MET'MAP TEAM :

Programming & Development : Alexandra Zaïnal
Original concept : Baudouin d'Aumeries
Technical & hardware support : Manuel Goepfert
Assistance : Marc-Olivier Méhu

Contact : metmap@orbifly.com




SOURCES & CREDITS :

   NOAA